createdAt,value
2023-01-13T09:46:44.642Z,11.43
2023-01-13T10:19:31.189Z,11.57
2023-01-13T10:22:55.427Z,11.87
2023-01-13T10:26:08.368Z,11.91
2023-01-13T10:28:37.539Z,12.21
2023-01-13T10:31:14.883Z,12.31
2023-01-13T10:33:42.347Z,12.10
2023-01-13T10:36:21.617Z,12.43
2023-01-13T10:38:50.903Z,12.84
2023-01-13T10:41:26.939Z,12.90
2023-01-13T10:44:14.454Z,13.34
2023-01-13T10:46:59.696Z,13.49
2023-01-13T10:49:38.589Z,13.43
2023-01-13T10:52:30.964Z,13.70
2023-01-13T10:54:58.634Z,13.39
2023-01-13T10:57:28.472Z,13.49
2023-01-13T10:59:56.420Z,13.24
2023-01-13T11:02:34.470Z,13.18
2023-01-13T11:05:24.504Z,13.27
2023-01-13T11:07:54.987Z,13.05
2023-01-13T11:10:30.673Z,12.86
2023-01-13T11:14:03.698Z,12.96
2023-01-13T11:16:52.985Z,12.76
2023-01-13T11:19:25.501Z,12.62
2023-01-13T11:22:00.871Z,12.91
2023-01-13T11:24:55.739Z,12.86
2023-01-13T11:27:53.104Z,12.65
2023-01-13T11:31:21.557Z,12.53
2023-01-13T11:34:08.251Z,12.83
2023-01-13T11:36:57.976Z,12.41
2023-01-13T11:40:06.914Z,12.49
2023-01-13T11:43:28.364Z,12.55
2023-01-13T11:46:01.554Z,12.31
2023-01-13T11:48:36.109Z,12.50
2023-01-13T11:51:54.253Z,12.71
2023-01-13T11:55:06.241Z,12.73
2023-01-13T11:58:20.383Z,12.76
2023-01-13T12:01:34.765Z,12.71
2023-01-13T12:04:23.344Z,13.11
2023-01-13T12:07:40.297Z,12.84
2023-01-13T12:10:53.046Z,12.99
2023-01-13T12:14:28.978Z,12.82
2023-01-13T12:16:56.677Z,12.75
2023-01-13T12:19:31.208Z,12.65
2023-01-13T12:22:29.946Z,12.64
2023-01-13T12:25:14.072Z,12.63
2023-01-13T12:27:53.534Z,12.54
2023-01-13T12:30:52.374Z,12.98
2023-01-13T12:34:00.066Z,12.80
2023-01-13T12:36:59.345Z,13.10
2023-01-13T12:40:19.072Z,12.60
2023-01-13T12:43:38.988Z,12.66
2023-01-13T12:46:21.594Z,12.76
2023-01-13T12:48:59.155Z,13.03
2023-01-13T12:51:51.440Z,12.91
2023-01-13T12:54:30.946Z,12.81
2023-01-13T12:56:59.587Z,12.84
2023-01-13T12:59:26.678Z,13.24
2023-01-13T13:02:12.288Z,13.35
2023-01-13T13:04:56.563Z,13.23
2023-01-13T13:08:07.875Z,13.22
2023-01-13T13:10:58.435Z,13.23
2023-01-13T13:13:49.216Z,13.06
2023-01-13T13:16:25.625Z,13.25
2023-01-13T13:19:18.510Z,13.24
2023-01-13T13:22:14.108Z,13.21
2023-01-13T13:24:44.557Z,13.25
2023-01-13T13:27:37.308Z,13.29
2023-01-13T13:30:20.743Z,13.10
2023-01-13T13:33:55.528Z,13.41
2023-01-13T13:37:07.027Z,13.30
2023-01-13T13:39:53.456Z,13.34
2023-01-13T13:42:54.691Z,13.41
2023-01-13T13:45:46.560Z,13.07
2023-01-13T13:48:31.019Z,13.16
2023-01-13T13:51:20.471Z,13.31
2023-01-13T13:53:49.229Z,13.38
2023-01-13T13:56:27.630Z,13.19
2023-01-13T13:58:55.341Z,12.98
2023-01-13T14:01:36.578Z,12.80
2023-01-13T14:04:22.230Z,12.74
2023-01-13T14:07:16.159Z,12.77
2023-01-13T14:09:56.577Z,12.83
2023-01-13T14:12:27.584Z,12.86
2023-01-13T14:14:57.505Z,13.08
2023-01-13T14:17:29.235Z,12.33
2023-01-13T14:20:10.436Z,12.59
2023-01-13T14:22:37.859Z,12.12
2023-01-13T14:25:40.111Z,12.40
2023-01-13T14:28:13.373Z,12.19
2023-01-13T14:30:42.063Z,12.15
2023-01-13T14:33:21.192Z,11.61
2023-01-13T14:36:33.315Z,10.90
2023-01-13T14:39:03.487Z,11.22
2023-01-13T14:41:36.495Z,11.60
2023-01-13T14:44:27.785Z,11.13
2023-01-13T14:47:00.993Z,11.19
2023-01-13T14:49:58.961Z,11.30
2023-01-13T14:52:34.589Z,11.19
2023-01-13T14:55:09.139Z,11.10
2023-01-13T14:57:41.744Z,11.20
2023-01-13T15:00:15.069Z,11.05
2023-01-13T15:02:57.709Z,11.11
2023-01-13T15:05:29.794Z,10.72
2023-01-13T15:08:35.243Z,10.69
2023-01-13T15:11:08.283Z,10.84
2023-01-13T15:13:53.028Z,10.34
2023-01-13T15:16:29.816Z,10.23
2023-01-13T15:18:57.908Z,10.25
2023-01-13T15:21:25.492Z,10.51
2023-01-13T15:23:53.114Z,10.47
2023-01-13T15:26:30.000Z,10.50
2023-01-13T15:28:59.413Z,11.19
2023-01-13T15:31:28.342Z,11.06
2023-01-13T15:33:56.012Z,11.29
2023-01-13T15:36:30.997Z,11.57
2023-01-13T15:39:00.820Z,11.29
2023-01-13T15:41:47.226Z,11.45
2023-01-13T15:44:35.048Z,11.57
2023-01-13T15:47:09.468Z,11.51
2023-01-13T15:49:42.852Z,11.45
2023-01-13T15:52:36.639Z,11.54
2023-01-13T15:55:04.689Z,11.61
2023-01-13T15:57:37.596Z,11.58
2023-01-13T16:00:22.034Z,11.60
2023-01-13T16:02:50.764Z,11.54
2023-01-13T16:05:18.256Z,11.40
2023-01-13T16:07:45.700Z,11.56
2023-01-13T16:10:27.906Z,11.49
2023-01-13T16:12:58.542Z,11.51
2023-01-13T16:15:26.118Z,11.55
2023-01-13T16:17:59.875Z,11.41
2023-01-13T16:20:28.010Z,11.37
2023-01-13T16:22:55.416Z,11.48
2023-01-13T16:25:27.321Z,10.76
2023-01-13T16:27:54.813Z,11.13
2023-01-13T16:30:37.106Z,10.64
2023-01-13T16:33:04.602Z,10.68
2023-01-13T16:35:32.248Z,10.58
2023-01-13T16:37:59.922Z,10.73
2023-01-13T16:40:35.871Z,10.75
